Pagina principale
METAR-TAF:

METAR-TAF

Aeroporti :

Jinotega, Nicaragua

latitudine: 13-05N, longitudine: 085-59W, altezza: 985 m

Osservazione

Il bollettino è stato emesso 1 ora e 2 minuti fa, alle 13:00 UTC
Vento calmo
Temperature 21°C
Umidità 94%
Pressione 1013 hPa
Visibilità: 5000 m
Nuvoloso ad un'altezza di 1000 ft
foschia,

METAR: MNJG 221300Z 00000KT 5000 BKN010 21/20 Q1013 BR

Ora: 08:02 (14:02 UTC)


TAF: mancante

Osservazioni e previsioni meteorologiche di più di 4000 aeroporti (messaggi METAR e TAF).

Le stazioni disponibili sono rappresentate dai dischi gialli e rossi sulla carta.

Puntare il mouse per vedere il nome della stazione.

Clicca sopra per visualizzare le osservazioni e previsioni meteorologiche.

Per cambiare la mappa : fare clic sui pulsanti verdi con una croce nera per ingrandire, il pulsante verde con un trattino per diminuire, o sulla freccia verde per le mappe adiacenti.


METAR-TAF: